sensor_id;sensor_type;location;lat;lon;timestamp;P1;durP1;ratioP1;P2;durP2;ratioP2
75504;SDS011;64085;54.974;73.410;2023-05-07T00:01:43;9.50;;;6.97;;
75504;SDS011;64085;54.974;73.410;2023-05-07T00:04:09;12.15;;;7.28;;
75504;SDS011;64085;54.974;73.410;2023-05-07T00:06:53;12.00;;;6.72;;
75504;SDS011;64085;54.974;73.410;2023-05-07T00:09:18;12.50;;;6.28;;
75504;SDS011;64085;54.974;73.410;2023-05-07T00:11:44;11.60;;;7.53;;
75504;SDS011;64085;54.974;73.410;2023-05-07T00:14:28;14.35;;;7.35;;
75504;SDS011;64085;54.974;73.410;2023-05-07T00:16:54;13.30;;;7.53;;
75504;SDS011;64085;54.974;73.410;2023-05-07T00:19:20;15.50;;;6.43;;
75504;SDS011;64085;54.974;73.410;2023-05-07T00:21:46;9.00;;;5.97;;
75504;SDS011;64085;54.974;73.410;2023-05-07T00:24:30;12.10;;;6.68;;
75504;SDS011;64085;54.974;73.410;2023-05-07T00:26:56;11.18;;;6.20;;
75504;SDS011;64085;54.974;73.410;2023-05-07T00:29:40;10.05;;;6.53;;
75504;SDS011;64085;54.974;73.410;2023-05-07T00:32:24;10.38;;;7.28;;
75504;SDS011;64085;54.974;73.410;2023-05-07T00:34:49;8.82;;;6.07;;
75504;SDS011;64085;54.974;73.410;2023-05-07T00:37:16;11.70;;;6.53;;
75504;SDS011;64085;54.974;73.410;2023-05-07T00:39:41;10.75;;;6.10;;
75504;SDS011;64085;54.974;73.410;2023-05-07T00:42:07;11.45;;;6.35;;
75504;SDS011;64085;54.974;73.410;2023-05-07T00:44:33;13.10;;;6.38;;
75504;SDS011;64085;54.974;73.410;2023-05-07T00:49:43;11.30;;;6.47;;
75504;SDS011;64085;54.974;73.410;2023-05-07T00:52:13;10.68;;;6.35;;
75504;SDS011;64085;54.974;73.410;2023-05-07T00:54:41;11.98;;;6.72;;
75504;SDS011;64085;54.974;73.410;2023-05-07T00:57:07;13.27;;;7.13;;
75504;SDS011;64085;54.974;73.410;2023-05-07T00:59:35;11.20;;;6.80;;
75504;SDS011;64085;54.974;73.410;2023-05-07T01:02:01;12.88;;;6.70;;
75504;SDS011;64085;54.974;73.410;2023-05-07T01:04:45;12.23;;;7.13;;
75504;SDS011;64085;54.974;73.410;2023-05-07T01:07:11;10.98;;;6.90;;
75504;SDS011;64085;54.974;73.410;2023-05-07T01:09:37;12.10;;;7.32;;
75504;SDS011;64085;54.974;73.410;2023-05-07T01:17:36;11.13;;;6.55;;
75504;SDS011;64085;54.974;73.410;2023-05-07T01:20:04;16.02;;;6.47;;
75504;SDS011;64085;54.974;73.410;2023-05-07T01:22:34;12.82;;;6.70;;
75504;SDS011;64085;54.974;73.410;2023-05-07T01:25:01;10.13;;;6.32;;
75504;SDS011;64085;54.974;73.410;2023-05-07T01:27:28;10.65;;;5.93;;
75504;SDS011;64085;54.974;73.410;2023-05-07T01:29:54;13.15;;;6.35;;
75504;SDS011;64085;54.974;73.410;2023-05-07T01:32:59;9.93;;;6.53;;
75504;SDS011;64085;54.974;73.410;2023-05-07T01:35:36;9.43;;;6.65;;
75504;SDS011;64085;54.974;73.410;2023-05-07T01:38:23;16.15;;;6.82;;
75504;SDS011;64085;54.974;73.410;2023-05-07T01:40:49;11.95;;;6.50;;
75504;SDS011;64085;54.974;73.410;2023-05-07T01:43:15;12.30;;;7.47;;
75504;SDS011;64085;54.974;73.410;2023-05-07T01:48:26;11.40;;;6.18;;
75504;SDS011;64085;54.974;73.410;2023-05-07T01:50:52;13.25;;;6.97;;
75504;SDS011;64085;54.974;73.410;2023-05-07T01:53:18;10.25;;;6.55;;
75504;SDS011;64085;54.974;73.410;2023-05-07T01:55:44;13.05;;;7.30;;
75504;SDS011;64085;54.974;73.410;2023-05-07T01:58:10;10.52;;;6.95;;
75504;SDS011;64085;54.974;73.410;2023-05-07T02:00:36;13.45;;;6.07;;
75504;SDS011;64085;54.974;73.410;2023-05-07T02:03:20;10.20;;;5.97;;
75504;SDS011;64085;54.974;73.410;2023-05-07T02:11:34;12.73;;;5.90;;
75504;SDS011;64085;54.974;73.410;2023-05-07T02:16:45;15.68;;;6.30;;
75504;SDS011;64085;54.974;73.410;2023-05-07T02:19:29;9.02;;;6.07;;
75504;SDS011;64085;54.974;73.410;2023-05-07T02:21:55;7.60;;;5.85;;
75504;SDS011;64085;54.974;73.410;2023-05-07T02:24:20;11.35;;;5.95;;
75504;SDS011;64085;54.974;73.410;2023-05-07T02:26:46;10.75;;;6.07;;
75504;SDS011;64085;54.974;73.410;2023-05-07T02:29:11;9.32;;;5.82;;
75504;SDS011;64085;54.974;73.410;2023-05-07T02:31:37;10.38;;;6.05;;
75504;SDS011;64085;54.974;73.410;2023-05-07T02:37:05;10.90;;;5.85;;
75504;SDS011;64085;54.974;73.410;2023-05-07T02:39:31;10.00;;;5.90;;
75504;SDS011;64085;54.974;73.410;2023-05-07T02:41:57;11.90;;;6.03;;
75504;SDS011;64085;54.974;73.410;2023-05-07T02:44:22;12.38;;;6.00;;
75504;SDS011;64085;54.974;73.410;2023-05-07T02:46:48;11.98;;;5.78;;
75504;SDS011;64085;54.974;73.410;2023-05-07T02:49:13;13.20;;;5.55;;
75504;SDS011;64085;54.974;73.410;2023-05-07T02:51:57;8.60;;;5.72;;
75504;SDS011;64085;54.974;73.410;2023-05-07T02:54:23;12.05;;;6.28;;
75504;SDS011;64085;54.974;73.410;2023-05-07T02:56:49;9.75;;;5.85;;
75504;SDS011;64085;54.974;73.410;2023-05-07T02:59:51;8.18;;;5.07;;
75504;SDS011;64085;54.974;73.410;2023-05-07T03:02:17;9.95;;;5.40;;
75504;SDS011;64085;54.974;73.410;2023-05-07T03:04:42;7.88;;;4.45;;
75504;SDS011;64085;54.974;73.410;2023-05-07T03:07:08;10.43;;;4.57;;
75504;SDS011;64085;54.974;73.410;2023-05-07T03:09:33;9.43;;;4.85;;
75504;SDS011;64085;54.974;73.410;2023-05-07T03:11:59;11.88;;;4.82;;
75504;SDS011;64085;54.974;73.410;2023-05-07T03:14:26;7.70;;;4.55;;
75504;SDS011;64085;54.974;73.410;2023-05-07T03:16:52;5.78;;;4.47;;
75504;SDS011;64085;54.974;73.410;2023-05-07T03:19:18;7.70;;;4.20;;
75504;SDS011;64085;54.974;73.410;2023-05-07T03:21:43;8.40;;;4.10;;
75504;SDS011;64085;54.974;73.410;2023-05-07T03:24:09;8.48;;;3.92;;
75504;SDS011;64085;54.974;73.410;2023-05-07T03:26:53;10.95;;;4.35;;
75504;SDS011;64085;54.974;73.410;2023-05-07T03:29:18;7.68;;;4.55;;
75504;SDS011;64085;54.974;73.410;2023-05-07T03:31:44;6.05;;;3.97;;
75504;SDS011;64085;54.974;73.410;2023-05-07T03:34:29;9.07;;;3.67;;
75504;SDS011;64085;54.974;73.410;2023-05-07T03:37:13;8.77;;;4.25;;
75504;SDS011;64085;54.974;73.410;2023-05-07T03:39:38;7.63;;;4.47;;
75504;SDS011;64085;54.974;73.410;2023-05-07T03:42:04;5.35;;;4.25;;
75504;SDS011;64085;54.974;73.410;2023-05-07T03:44:48;8.13;;;4.72;;
75504;SDS011;64085;54.974;73.410;2023-05-07T03:47:14;8.07;;;4.97;;
75504;SDS011;64085;54.974;73.410;2023-05-07T03:49:39;7.65;;;4.38;;
75504;SDS011;64085;54.974;73.410;2023-05-07T03:52:05;12.98;;;5.03;;
75504;SDS011;64085;54.974;73.410;2023-05-07T03:54:50;7.93;;;4.38;;
75504;SDS011;64085;54.974;73.410;2023-05-07T04:00:00;7.75;;;4.43;;
75504;SDS011;64085;54.974;73.410;2023-05-07T04:02:26;6.45;;;4.03;;
75504;SDS011;64085;54.974;73.410;2023-05-07T04:04:52;9.38;;;4.25;;
75504;SDS011;64085;54.974;73.410;2023-05-07T04:07:17;7.30;;;4.38;;
75504;SDS011;64085;54.974;73.410;2023-05-07T04:09:43;9.95;;;4.80;;
75504;SDS011;64085;54.974;73.410;2023-05-07T04:12:09;8.10;;;4.82;;
75504;SDS011;64085;54.974;73.410;2023-05-07T04:14:34;7.35;;;4.68;;
75504;SDS011;64085;54.974;73.410;2023-05-07T04:17:00;10.80;;;5.53;;
75504;SDS011;64085;54.974;73.410;2023-05-07T04:19:26;8.18;;;5.97;;
75504;SDS011;64085;54.974;73.410;2023-05-07T04:21:51;8.60;;;4.97;;
75504;SDS011;64085;54.974;73.410;2023-05-07T04:24:17;8.55;;;5.18;;
75504;SDS011;64085;54.974;73.410;2023-05-07T04:26:43;10.00;;;5.68;;
75504;SDS011;64085;54.974;73.410;2023-05-07T04:31:53;5.95;;;4.32;;
75504;SDS011;64085;54.974;73.410;2023-05-07T04:34:37;6.22;;;4.03;;
75504;SDS011;64085;54.974;73.410;2023-05-07T04:37:21;6.20;;;4.47;;
75504;SDS011;64085;54.974;73.410;2023-05-07T04:39:47;6.53;;;4.70;;
75504;SDS011;64085;54.974;73.410;2023-05-07T04:42:16;10.82;;;5.88;;
75504;SDS011;64085;54.974;73.410;2023-05-07T04:44:44;7.55;;;5.80;;
75504;SDS011;64085;54.974;73.410;2023-05-07T04:47:10;5.95;;;5.35;;
75504;SDS011;64085;54.974;73.410;2023-05-07T04:49:37;8.23;;;4.80;;
75504;SDS011;64085;54.974;73.410;2023-05-07T04:52:03;6.00;;;4.47;;
75504;SDS011;64085;54.974;73.410;2023-05-07T04:54:29;11.98;;;4.97;;
75504;SDS011;64085;54.974;73.410;2023-05-07T04:56:55;11.93;;;5.30;;
75504;SDS011;64085;54.974;73.410;2023-05-07T04:59:21;8.48;;;4.95;;
75504;SDS011;64085;54.974;73.410;2023-05-07T05:01:46;9.15;;;6.05;;
75504;SDS011;64085;54.974;73.410;2023-05-07T05:04:12;10.10;;;4.38;;
75504;SDS011;64085;54.974;73.410;2023-05-07T05:06:38;6.32;;;4.15;;
75504;SDS011;64085;54.974;73.410;2023-05-07T05:09:04;9.35;;;4.22;;
75504;SDS011;64085;54.974;73.410;2023-05-07T05:11:30;7.25;;;3.92;;
75504;SDS011;64085;54.974;73.410;2023-05-07T05:13:56;4.90;;;3.28;;
75504;SDS011;64085;54.974;73.410;2023-05-07T05:16:22;6.38;;;3.88;;
75504;SDS011;64085;54.974;73.410;2023-05-07T05:18:47;5.22;;;3.67;;
75504;SDS011;64085;54.974;73.410;2023-05-07T05:21:13;6.90;;;3.80;;
75504;SDS011;64085;54.974;73.410;2023-05-07T05:23:39;7.03;;;3.42;;
75504;SDS011;64085;54.974;73.410;2023-05-07T05:26:05;4.53;;;3.83;;
75504;SDS011;64085;54.974;73.410;2023-05-07T05:28:30;5.90;;;3.20;;
75504;SDS011;64085;54.974;73.410;2023-05-07T05:30:56;4.38;;;3.47;;
75504;SDS011;64085;54.974;73.410;2023-05-07T05:33:22;5.53;;;3.40;;
75504;SDS011;64085;54.974;73.410;2023-05-07T05:35:47;5.43;;;2.90;;
75504;SDS011;64085;54.974;73.410;2023-05-07T05:40:59;3.13;;;2.65;;
75504;SDS011;64085;54.974;73.410;2023-05-07T05:46:09;3.33;;;3.00;;
75504;SDS011;64085;54.974;73.410;2023-05-07T05:48:53;3.47;;;2.80;;
75504;SDS011;64085;54.974;73.410;2023-05-07T05:51:18;4.47;;;3.10;;
75504;SDS011;64085;54.974;73.410;2023-05-07T05:53:44;4.05;;;2.65;;
75504;SDS011;64085;54.974;73.410;2023-05-07T05:56:10;2.47;;;2.28;;
75504;SDS011;64085;54.974;73.410;2023-05-07T05:58:54;6.35;;;2.53;;
75504;SDS011;64085;54.974;73.410;2023-05-07T06:01:19;5.32;;;2.80;;
75504;SDS011;64085;54.974;73.410;2023-05-07T06:03:45;6.30;;;2.45;;
75504;SDS011;64085;54.974;73.410;2023-05-07T06:06:11;4.10;;;2.28;;
75504;SDS011;64085;54.974;73.410;2023-05-07T06:08:36;4.88;;;2.55;;
75504;SDS011;64085;54.974;73.410;2023-05-07T06:11:02;3.10;;;2.30;;
75504;SDS011;64085;54.974;73.410;2023-05-07T06:13:28;3.15;;;2.95;;
75504;SDS011;64085;54.974;73.410;2023-05-07T06:18:38;2.35;;;2.13;;
75504;SDS011;64085;54.974;73.410;2023-05-07T06:21:04;5.55;;;2.45;;
75504;SDS011;64085;54.974;73.410;2023-05-07T06:23:29;3.22;;;2.35;;
75504;SDS011;64085;54.974;73.410;2023-05-07T06:26:13;4.10;;;2.28;;
75504;SDS011;64085;54.974;73.410;2023-05-07T06:28:39;5.50;;;2.55;;
75504;SDS011;64085;54.974;73.410;2023-05-07T06:31:11;4.15;;;2.30;;
75504;SDS011;64085;54.974;73.410;2023-05-07T06:33:41;3.47;;;2.17;;
75504;SDS011;64085;54.974;73.410;2023-05-07T06:36:07;4.57;;;1.95;;
75504;SDS011;64085;54.974;73.410;2023-05-07T06:38:33;2.50;;;1.80;;
75504;SDS011;64085;54.974;73.410;2023-05-07T06:40:58;2.72;;;1.75;;
75504;SDS011;64085;54.974;73.410;2023-05-07T06:43:24;5.28;;;2.15;;
75504;SDS011;64085;54.974;73.410;2023-05-07T06:45:50;3.35;;;2.28;;
75504;SDS011;64085;54.974;73.410;2023-05-07T06:48:15;4.60;;;2.08;;
75504;SDS011;64085;54.974;73.410;2023-05-07T06:50:44;5.72;;;2.10;;
75504;SDS011;64085;54.974;73.410;2023-05-07T06:53:10;3.13;;;1.83;;
75504;SDS011;64085;54.974;73.410;2023-05-07T06:55:36;3.45;;;2.30;;
75504;SDS011;64085;54.974;73.410;2023-05-07T06:58:03;2.78;;;1.80;;
75504;SDS011;64085;54.974;73.410;2023-05-07T07:00:29;3.40;;;1.83;;
75504;SDS011;64085;54.974;73.410;2023-05-07T07:02:56;5.57;;;2.53;;
75504;SDS011;64085;54.974;73.410;2023-05-07T07:05:22;6.40;;;2.33;;
75504;SDS011;64085;54.974;73.410;2023-05-07T07:08:06;4.15;;;2.55;;
75504;SDS011;64085;54.974;73.410;2023-05-07T07:10:31;6.07;;;2.10;;
75504;SDS011;64085;54.974;73.410;2023-05-07T07:12:57;4.35;;;1.98;;
75504;SDS011;64085;54.974;73.410;2023-05-07T07:15:23;7.07;;;1.80;;
75504;SDS011;64085;54.974;73.410;2023-05-07T07:17:50;2.97;;;1.95;;
75504;SDS011;64085;54.974;73.410;2023-05-07T07:20:16;7.47;;;2.63;;
75504;SDS011;64085;54.974;73.410;2023-05-07T07:22:59;3.08;;;1.80;;
75504;SDS011;64085;54.974;73.410;2023-05-07T07:25:25;2.47;;;1.90;;
75504;SDS011;64085;54.974;73.410;2023-05-07T07:30:38;2.15;;;1.67;;
75504;SDS011;64085;54.974;73.410;2023-05-07T07:36:08;2.80;;;1.65;;
75504;SDS011;64085;54.974;73.410;2023-05-07T07:38:53;2.35;;;1.58;;
75504;SDS011;64085;54.974;73.410;2023-05-07T07:43:46;5.35;;;1.85;;
75504;SDS011;64085;54.974;73.410;2023-05-07T07:46:12;3.83;;;1.90;;
75504;SDS011;64085;54.974;73.410;2023-05-07T07:48:56;2.95;;;1.70;;
75504;SDS011;64085;54.974;73.410;2023-05-07T07:51:24;4.80;;;1.80;;
75504;SDS011;64085;54.974;73.410;2023-05-07T07:56:33;3.13;;;1.70;;
75504;SDS011;64085;54.974;73.410;2023-05-07T07:59:00;3.97;;;1.55;;
75504;SDS011;64085;54.974;73.410;2023-05-07T08:01:25;2.47;;;1.45;;
75504;SDS011;64085;54.974;73.410;2023-05-07T08:03:52;2.60;;;1.73;;
75504;SDS011;64085;54.974;73.410;2023-05-07T08:06:17;5.40;;;1.98;;
75504;SDS011;64085;54.974;73.410;2023-05-07T08:08:43;6.18;;;1.88;;
75504;SDS011;64085;54.974;73.410;2023-05-07T08:11:09;5.93;;;2.17;;
75504;SDS011;64085;54.974;73.410;2023-05-07T08:16:20;3.72;;;1.90;;
75504;SDS011;64085;54.974;73.410;2023-05-07T08:18:46;3.45;;;1.98;;
75504;SDS011;64085;54.974;73.410;2023-05-07T08:21:30;5.00;;;2.65;;
75504;SDS011;64085;54.974;73.410;2023-05-07T08:23:56;3.67;;;2.00;;
75504;SDS011;64085;54.974;73.410;2023-05-07T08:26:22;4.28;;;1.90;;
75504;SDS011;64085;54.974;73.410;2023-05-07T08:28:49;2.88;;;1.70;;
75504;SDS011;64085;54.974;73.410;2023-05-07T08:31:15;3.67;;;1.60;;
75504;SDS011;64085;54.974;73.410;2023-05-07T08:33:41;6.00;;;1.80;;
75504;SDS011;64085;54.974;73.410;2023-05-07T08:36:06;3.35;;;1.60;;
75504;SDS011;64085;54.974;73.410;2023-05-07T08:38:33;3.08;;;1.52;;
75504;SDS011;64085;54.974;73.410;2023-05-07T08:40:59;16.85;;;3.38;;
75504;SDS011;64085;54.974;73.410;2023-05-07T08:43:26;5.72;;;2.08;;
75504;SDS011;64085;54.974;73.410;2023-05-07T08:45:53;7.35;;;2.15;;
75504;SDS011;64085;54.974;73.410;2023-05-07T08:48:38;4.05;;;2.20;;
75504;SDS011;64085;54.974;73.410;2023-05-07T08:51:04;6.28;;;2.10;;
75504;SDS011;64085;54.974;73.410;2023-05-07T08:53:30;3.38;;;1.90;;
75504;SDS011;64085;54.974;73.410;2023-05-07T08:55:56;6.40;;;2.08;;
75504;SDS011;64085;54.974;73.410;2023-05-07T08:58:22;4.13;;;1.88;;
75504;SDS011;64085;54.974;73.410;2023-05-07T09:03:50;10.45;;;5.53;;
75504;SDS011;64085;54.974;73.410;2023-05-07T09:06:18;8.57;;;5.78;;
75504;SDS011;64085;54.974;73.410;2023-05-07T09:08:50;3.47;;;1.90;;
75504;SDS011;64085;54.974;73.410;2023-05-07T09:11:19;4.00;;;2.40;;
75504;SDS011;64085;54.974;73.410;2023-05-07T09:13:46;6.88;;;3.55;;
75504;SDS011;64085;54.974;73.410;2023-05-07T09:16:12;6.20;;;3.17;;
75504;SDS011;64085;54.974;73.410;2023-05-07T09:18:48;3.20;;;2.58;;
75504;SDS011;64085;54.974;73.410;2023-05-07T09:21:17;9.45;;;3.20;;
75504;SDS011;64085;54.974;73.410;2023-05-07T09:23:43;3.67;;;2.10;;
75504;SDS011;64085;54.974;73.410;2023-05-07T09:26:09;3.70;;;2.80;;
75504;SDS011;64085;54.974;73.410;2023-05-07T09:28:42;4.05;;;1.73;;
75504;SDS011;64085;54.974;73.410;2023-05-07T09:31:09;4.85;;;2.30;;
75504;SDS011;64085;54.974;73.410;2023-05-07T09:33:35;7.50;;;4.55;;
75504;SDS011;64085;54.974;73.410;2023-05-07T09:36:02;5.80;;;2.75;;
75504;SDS011;64085;54.974;73.410;2023-05-07T09:38:47;3.17;;;2.00;;
75504;SDS011;64085;54.974;73.410;2023-05-07T09:41:31;7.53;;;2.28;;
75504;SDS011;64085;54.974;73.410;2023-05-07T09:43:57;3.17;;;1.65;;
75504;SDS011;64085;54.974;73.410;2023-05-07T09:46:30;4.68;;;2.00;;
75504;SDS011;64085;54.974;73.410;2023-05-07T09:49:21;5.78;;;2.53;;
75504;SDS011;64085;54.974;73.410;2023-05-07T09:51:48;4.20;;;3.35;;
75504;SDS011;64085;54.974;73.410;2023-05-07T09:54:16;4.82;;;3.17;;
75504;SDS011;64085;54.974;73.410;2023-05-07T09:57:03;3.72;;;2.47;;
75504;SDS011;64085;54.974;73.410;2023-05-07T09:59:33;5.47;;;2.42;;
75504;SDS011;64085;54.974;73.410;2023-05-07T10:02:01;5.05;;;2.05;;
75504;SDS011;64085;54.974;73.410;2023-05-07T10:04:28;8.85;;;2.85;;
75504;SDS011;64085;54.974;73.410;2023-05-07T10:06:54;4.50;;;2.55;;
75504;SDS011;64085;54.974;73.410;2023-05-07T10:09:39;4.38;;;2.05;;
75504;SDS011;64085;54.974;73.410;2023-05-07T10:14:52;4.55;;;1.75;;
75504;SDS011;64085;54.974;73.410;2023-05-07T10:17:38;8.85;;;6.57;;
75504;SDS011;64085;54.974;73.410;2023-05-07T10:20:05;6.47;;;3.58;;
75504;SDS011;64085;54.974;73.410;2023-05-07T10:22:33;4.88;;;3.05;;
75504;SDS011;64085;54.974;73.410;2023-05-07T10:28:07;2.78;;;2.15;;
75504;SDS011;64085;54.974;73.410;2023-05-07T10:33:10;3.78;;;1.90;;
75504;SDS011;64085;54.974;73.410;2023-05-07T10:35:40;3.42;;;1.80;;
75504;SDS011;64085;54.974;73.410;2023-05-07T10:38:07;4.03;;;1.90;;
75504;SDS011;64085;54.974;73.410;2023-05-07T10:40:34;4.85;;;2.20;;
75504;SDS011;64085;54.974;73.410;2023-05-07T10:43:00;2.78;;;1.65;;
75504;SDS011;64085;54.974;73.410;2023-05-07T10:45:30;2.33;;;1.75;;
75504;SDS011;64085;54.974;73.410;2023-05-07T10:50:35;1.98;;;1.60;;
75504;SDS011;64085;54.974;73.410;2023-05-07T10:58:37;4.57;;;2.10;;
75504;SDS011;64085;54.974;73.410;2023-05-07T11:04:25;5.18;;;2.22;;
75504;SDS011;64085;54.974;73.410;2023-05-07T11:15:03;4.80;;;2.17;;
75504;SDS011;64085;54.974;73.410;2023-05-07T11:17:30;4.95;;;2.28;;
75504;SDS011;64085;54.974;73.410;2023-05-07T11:19:57;3.03;;;1.83;;
75504;SDS011;64085;54.974;73.410;2023-05-07T11:25:07;5.15;;;2.63;;
75504;SDS011;64085;54.974;73.410;2023-05-07T11:27:33;4.85;;;2.72;;
75504;SDS011;64085;54.974;73.410;2023-05-07T11:29:59;3.90;;;2.63;;
75504;SDS011;64085;54.974;73.410;2023-05-07T11:32:28;3.78;;;2.45;;
75504;SDS011;64085;54.974;73.410;2023-05-07T11:34:55;7.63;;;3.17;;
75504;SDS011;64085;54.974;73.410;2023-05-07T11:37:41;7.70;;;2.67;;
75504;SDS011;64085;54.974;73.410;2023-05-07T11:40:26;5.60;;;2.65;;
75504;SDS011;64085;54.974;73.410;2023-05-07T11:42:51;3.38;;;2.70;;
75504;SDS011;64085;54.974;73.410;2023-05-07T11:45:22;5.88;;;3.17;;
75504;SDS011;64085;54.974;73.410;2023-05-07T11:47:52;5.55;;;2.70;;
75504;SDS011;64085;54.974;73.410;2023-05-07T11:50:17;3.88;;;2.83;;
75504;SDS011;64085;54.974;73.410;2023-05-07T11:52:50;7.55;;;3.58;;
75504;SDS011;64085;54.974;73.410;2023-05-07T11:55:18;7.78;;;3.88;;
75504;SDS011;64085;54.974;73.410;2023-05-07T11:58:02;6.70;;;3.67;;
75504;SDS011;64085;54.974;73.410;2023-05-07T12:00:28;4.03;;;3.30;;
75504;SDS011;64085;54.974;73.410;2023-05-07T12:03:12;5.65;;;3.20;;
75504;SDS011;64085;54.974;73.410;2023-05-07T12:05:37;4.97;;;3.72;;
75504;SDS011;64085;54.974;73.410;2023-05-07T12:08:06;4.30;;;3.15;;
75504;SDS011;64085;54.974;73.410;2023-05-07T12:13:23;3.97;;;3.33;;
75504;SDS011;64085;54.974;73.410;2023-05-07T12:15:55;9.00;;;3.25;;
75504;SDS011;64085;54.974;73.410;2023-05-07T12:18:21;9.10;;;3.15;;
75504;SDS011;64085;54.974;73.410;2023-05-07T12:20:48;9.65;;;3.53;;
75504;SDS011;64085;54.974;73.410;2023-05-07T12:23:33;5.57;;;2.85;;
75504;SDS011;64085;54.974;73.410;2023-05-07T12:26:18;5.90;;;3.55;;
75504;SDS011;64085;54.974;73.410;2023-05-07T12:31:30;6.80;;;3.17;;
75504;SDS011;64085;54.974;73.410;2023-05-07T12:33:56;9.45;;;3.65;;
75504;SDS011;64085;54.974;73.410;2023-05-07T12:36:22;6.75;;;3.72;;
75504;SDS011;64085;54.974;73.410;2023-05-07T12:38:49;6.70;;;2.63;;
75504;SDS011;64085;54.974;73.410;2023-05-07T12:44:23;6.38;;;3.55;;
75504;SDS011;64085;54.974;73.410;2023-05-07T12:47:07;10.82;;;3.72;;
75504;SDS011;64085;54.974;73.410;2023-05-07T12:49:34;9.10;;;4.05;;
75504;SDS011;64085;54.974;73.410;2023-05-07T12:58:43;6.07;;;2.97;;
75504;SDS011;64085;54.974;73.410;2023-05-07T13:01:08;9.52;;;3.60;;
75504;SDS011;64085;54.974;73.410;2023-05-07T13:03:53;4.57;;;3.47;;
75504;SDS011;64085;54.974;73.410;2023-05-07T13:06:18;8.95;;;3.95;;
75504;SDS011;64085;54.974;73.410;2023-05-07T13:09:02;4.85;;;3.40;;
75504;SDS011;64085;54.974;73.410;2023-05-07T13:11:29;6.32;;;4.35;;
75504;SDS011;64085;54.974;73.410;2023-05-07T13:13:55;8.82;;;3.88;;
75504;SDS011;64085;54.974;73.410;2023-05-07T13:16:21;8.35;;;4.50;;
75504;SDS011;64085;54.974;73.410;2023-05-07T13:19:05;8.10;;;4.40;;
75504;SDS011;64085;54.974;73.410;2023-05-07T13:21:30;13.35;;;4.20;;
75504;SDS011;64085;54.974;73.410;2023-05-07T13:26:43;7.07;;;4.13;;
75504;SDS011;64085;54.974;73.410;2023-05-07T13:29:08;8.05;;;4.25;;
75504;SDS011;64085;54.974;73.410;2023-05-07T13:31:34;7.43;;;4.65;;
75504;SDS011;64085;54.974;73.410;2023-05-07T13:34:18;13.85;;;5.20;;
75504;SDS011;64085;54.974;73.410;2023-05-07T13:36:44;6.97;;;3.90;;
75504;SDS011;64085;54.974;73.410;2023-05-07T13:39:28;9.13;;;4.55;;
75504;SDS011;64085;54.974;73.410;2023-05-07T13:41:54;11.73;;;4.40;;
75504;SDS011;64085;54.974;73.410;2023-05-07T13:44:20;9.50;;;4.32;;
75504;SDS011;64085;54.974;73.410;2023-05-07T13:47:04;5.80;;;4.03;;
75504;SDS011;64085;54.974;73.410;2023-05-07T13:49:29;9.05;;;4.45;;
75504;SDS011;64085;54.974;73.410;2023-05-07T13:51:55;5.10;;;4.20;;
75504;SDS011;64085;54.974;73.410;2023-05-07T13:54:21;9.18;;;4.68;;
75504;SDS011;64085;54.974;73.410;2023-05-07T13:56:47;6.57;;;4.38;;
75504;SDS011;64085;54.974;73.410;2023-05-07T13:59:13;9.63;;;4.60;;
75504;SDS011;64085;54.974;73.410;2023-05-07T14:01:40;13.27;;;4.82;;
75504;SDS011;64085;54.974;73.410;2023-05-07T14:06:50;9.63;;;4.78;;
75504;SDS011;64085;54.974;73.410;2023-05-07T14:09:16;9.80;;;5.15;;
75504;SDS011;64085;54.974;73.410;2023-05-07T14:11:42;8.57;;;5.00;;
75504;SDS011;64085;54.974;73.410;2023-05-07T14:14:08;17.13;;;7.85;;
75504;SDS011;64085;54.974;73.410;2023-05-07T14:16:36;17.15;;;9.82;;
75504;SDS011;64085;54.974;73.410;2023-05-07T14:21:48;17.50;;;9.02;;
75504;SDS011;64085;54.974;73.410;2023-05-07T14:24:32;17.55;;;10.15;;
75504;SDS011;64085;54.974;73.410;2023-05-07T14:27:16;25.75;;;10.48;;
75504;SDS011;64085;54.974;73.410;2023-05-07T14:29:42;18.25;;;9.55;;
75504;SDS011;64085;54.974;73.410;2023-05-07T14:32:08;17.27;;;10.02;;
75504;SDS011;64085;54.974;73.410;2023-05-07T14:34:34;20.85;;;11.88;;
75504;SDS011;64085;54.974;73.410;2023-05-07T14:37:00;21.75;;;11.88;;
75504;SDS011;64085;54.974;73.410;2023-05-07T14:42:11;20.85;;;12.02;;
75504;SDS011;64085;54.974;73.410;2023-05-07T14:44:37;20.25;;;11.43;;
75504;SDS011;64085;54.974;73.410;2023-05-07T14:47:05;21.40;;;11.95;;
75504;SDS011;64085;54.974;73.410;2023-05-07T14:49:31;19.70;;;10.43;;
75504;SDS011;64085;54.974;73.410;2023-05-07T14:51:57;19.98;;;10.70;;
75504;SDS011;64085;54.974;73.410;2023-05-07T14:54:25;24.23;;;11.35;;
75504;SDS011;64085;54.974;73.410;2023-05-07T14:56:50;25.23;;;11.85;;
75504;SDS011;64085;54.974;73.410;2023-05-07T14:59:16;21.20;;;12.15;;
75504;SDS011;64085;54.974;73.410;2023-05-07T15:02:01;17.48;;;10.48;;
75504;SDS011;64085;54.974;73.410;2023-05-07T15:04:27;26.13;;;11.63;;
75504;SDS011;64085;54.974;73.410;2023-05-07T15:06:53;18.88;;;10.23;;
75504;SDS011;64085;54.974;73.410;2023-05-07T15:09:21;18.52;;;11.57;;
75504;SDS011;64085;54.974;73.410;2023-05-07T15:12:05;22.20;;;14.90;;
75504;SDS011;64085;54.974;73.410;2023-05-07T15:14:31;18.73;;;15.68;;
75504;SDS011;64085;54.974;73.410;2023-05-07T15:16:57;29.65;;;22.10;;
75504;SDS011;64085;54.974;73.410;2023-05-07T15:19:41;25.88;;;18.27;;
75504;SDS011;64085;54.974;73.410;2023-05-07T15:22:25;18.27;;;13.45;;
75504;SDS011;64085;54.974;73.410;2023-05-07T15:27:54;16.67;;;7.53;;
75504;SDS011;64085;54.974;73.410;2023-05-07T15:30:19;16.23;;;9.23;;
75504;SDS011;64085;54.974;73.410;2023-05-07T15:32:45;15.50;;;8.60;;
75504;SDS011;64085;54.974;73.410;2023-05-07T15:35:11;18.45;;;7.93;;
75504;SDS011;64085;54.974;73.410;2023-05-07T15:37:37;15.13;;;8.23;;
75504;SDS011;64085;54.974;73.410;2023-05-07T15:40:03;16.33;;;10.20;;
75504;SDS011;64085;54.974;73.410;2023-05-07T15:42:47;12.93;;;7.93;;
75504;SDS011;64085;54.974;73.410;2023-05-07T15:45:31;13.80;;;8.18;;
75504;SDS011;64085;54.974;73.410;2023-05-07T15:47:57;16.83;;;7.82;;
75504;SDS011;64085;54.974;73.410;2023-05-07T15:50:41;14.00;;;7.10;;
75504;SDS011;64085;54.974;73.410;2023-05-07T15:53:07;12.70;;;6.43;;
75504;SDS011;64085;54.974;73.410;2023-05-07T15:55:51;12.80;;;7.22;;
75504;SDS011;64085;54.974;73.410;2023-05-07T15:58:17;11.38;;;6.53;;
75504;SDS011;64085;54.974;73.410;2023-05-07T16:00:45;7.80;;;5.35;;
75504;SDS011;64085;54.974;73.410;2023-05-07T16:03:29;11.32;;;5.85;;
75504;SDS011;64085;54.974;73.410;2023-05-07T16:05:55;13.45;;;5.95;;
75504;SDS011;64085;54.974;73.410;2023-05-07T16:08:27;11.90;;;6.35;;
75504;SDS011;64085;54.974;73.410;2023-05-07T16:10:53;21.63;;;6.93;;
75504;SDS011;64085;54.974;73.410;2023-05-07T16:13:19;12.23;;;6.63;;
75504;SDS011;64085;54.974;73.410;2023-05-07T16:15:45;10.65;;;6.20;;
75504;SDS011;64085;54.974;73.410;2023-05-07T16:18:30;12.30;;;6.57;;
75504;SDS011;64085;54.974;73.410;2023-05-07T16:21:14;12.55;;;6.10;;
75504;SDS011;64085;54.974;73.410;2023-05-07T16:23:40;16.08;;;9.27;;
75504;SDS011;64085;54.974;73.410;2023-05-07T16:26:24;14.77;;;6.72;;
75504;SDS011;64085;54.974;73.410;2023-05-07T16:28:50;15.90;;;8.52;;
75504;SDS011;64085;54.974;73.410;2023-05-07T16:31:16;19.98;;;7.75;;
75504;SDS011;64085;54.974;73.410;2023-05-07T16:33:42;15.15;;;6.97;;
75504;SDS011;64085;54.974;73.410;2023-05-07T16:36:27;13.20;;;6.60;;